sensor_id;sensor_type;location;lat;lon;timestamp;P1;durP1;ratioP1;P2;durP2;ratioP2
19095;SDS011;9680;52.520;13.332;2022-08-20T00:01:43;20.00;;;12.15;;
19095;SDS011;9680;52.520;13.332;2022-08-20T00:04:11;18.70;;;11.25;;
19095;SDS011;9680;52.520;13.332;2022-08-20T00:06:38;20.48;;;12.27;;
19095;SDS011;9680;52.520;13.332;2022-08-20T00:09:05;21.88;;;12.18;;
19095;SDS011;9680;52.520;13.332;2022-08-20T00:11:31;20.60;;;12.75;;
19095;SDS011;9680;52.520;13.332;2022-08-20T00:13:59;23.48;;;12.38;;
19095;SDS011;9680;52.520;13.332;2022-08-20T00:16:27;21.60;;;12.80;;
19095;SDS011;9680;52.520;13.332;2022-08-20T00:18:56;20.85;;;12.50;;
19095;SDS011;9680;52.520;13.332;2022-08-20T00:21:22;21.30;;;12.32;;
19095;SDS011;9680;52.520;13.332;2022-08-20T00:23:49;21.42;;;12.15;;
19095;SDS011;9680;52.520;13.332;2022-08-20T00:26:16;23.65;;;12.25;;
19095;SDS011;9680;52.520;13.332;2022-08-20T00:28:42;20.95;;;12.52;;
19095;SDS011;9680;52.520;13.332;2022-08-20T00:31:09;20.75;;;11.80;;
19095;SDS011;9680;52.520;13.332;2022-08-20T00:33:37;21.83;;;11.68;;
19095;SDS011;9680;52.520;13.332;2022-08-20T00:36:04;20.65;;;11.90;;
19095;SDS011;9680;52.520;13.332;2022-08-20T00:38:38;22.27;;;12.40;;
19095;SDS011;9680;52.520;13.332;2022-08-20T00:41:06;23.50;;;12.80;;
19095;SDS011;9680;52.520;13.332;2022-08-20T00:43:44;21.45;;;13.05;;
19095;SDS011;9680;52.520;13.332;2022-08-20T00:46:21;23.45;;;12.35;;
19095;SDS011;9680;52.520;13.332;2022-08-20T00:48:51;22.25;;;12.45;;
19095;SDS011;9680;52.520;13.332;2022-08-20T00:51:24;22.48;;;12.32;;
19095;SDS011;9680;52.520;13.332;2022-08-20T00:53:55;20.42;;;11.95;;
19095;SDS011;9680;52.520;13.332;2022-08-20T00:56:25;18.80;;;11.63;;
19095;SDS011;9680;52.520;13.332;2022-08-20T00:58:51;20.58;;;11.55;;
19095;SDS011;9680;52.520;13.332;2022-08-20T01:01:17;20.75;;;12.43;;
19095;SDS011;9680;52.520;13.332;2022-08-20T01:03:43;17.98;;;11.15;;
19095;SDS011;9680;52.520;13.332;2022-08-20T01:06:09;21.70;;;11.32;;
19095;SDS011;9680;52.520;13.332;2022-08-20T01:08:36;17.13;;;10.63;;
19095;SDS011;9680;52.520;13.332;2022-08-20T01:11:03;16.40;;;10.73;;
19095;SDS011;9680;52.520;13.332;2022-08-20T01:13:44;17.63;;;10.82;;
19095;SDS011;9680;52.520;13.332;2022-08-20T01:16:29;16.05;;;10.60;;
19095;SDS011;9680;52.520;13.332;2022-08-20T01:18:56;17.70;;;10.80;;
19095;SDS011;9680;52.520;13.332;2022-08-20T01:21:25;16.60;;;10.75;;
19095;SDS011;9680;52.520;13.332;2022-08-20T01:24:10;19.63;;;11.45;;
19095;SDS011;9680;52.520;13.332;2022-08-20T01:26:48;17.98;;;10.85;;
19095;SDS011;9680;52.520;13.332;2022-08-20T01:29:17;19.50;;;11.35;;
19095;SDS011;9680;52.520;13.332;2022-08-20T01:31:46;17.77;;;11.23;;
19095;SDS011;9680;52.520;13.332;2022-08-20T01:34:14;19.80;;;11.75;;
19095;SDS011;9680;52.520;13.332;2022-08-20T01:36:43;17.83;;;10.98;;
19095;SDS011;9680;52.520;13.332;2022-08-20T01:39:11;18.23;;;11.05;;
19095;SDS011;9680;52.520;13.332;2022-08-20T01:44:21;19.27;;;10.90;;
19095;SDS011;9680;52.520;13.332;2022-08-20T01:46:48;15.63;;;10.10;;
19095;SDS011;9680;52.520;13.332;2022-08-20T01:49:24;16.77;;;10.30;;
19095;SDS011;9680;52.520;13.332;2022-08-20T01:51:55;18.67;;;10.38;;
19095;SDS011;9680;52.520;13.332;2022-08-20T01:54:24;17.23;;;10.60;;
19095;SDS011;9680;52.520;13.332;2022-08-20T01:56:55;17.58;;;10.20;;
19095;SDS011;9680;52.520;13.332;2022-08-20T01:59:38;16.83;;;10.65;;
19095;SDS011;9680;52.520;13.332;2022-08-20T02:02:05;18.40;;;11.10;;
19095;SDS011;9680;52.520;13.332;2022-08-20T02:04:31;20.58;;;11.93;;
19095;SDS011;9680;52.520;13.332;2022-08-20T02:06:59;19.60;;;11.43;;
19095;SDS011;9680;52.520;13.332;2022-08-20T02:09:27;21.00;;;12.10;;
19095;SDS011;9680;52.520;13.332;2022-08-20T02:11:57;20.52;;;11.57;;
19095;SDS011;9680;52.520;13.332;2022-08-20T02:14:23;20.42;;;11.90;;
19095;SDS011;9680;52.520;13.332;2022-08-20T02:16:50;23.20;;;13.30;;
19095;SDS011;9680;52.520;13.332;2022-08-20T02:19:21;21.13;;;12.48;;
19095;SDS011;9680;52.520;13.332;2022-08-20T02:21:52;22.48;;;12.50;;
19095;SDS011;9680;52.520;13.332;2022-08-20T02:24:21;24.88;;;12.90;;
19095;SDS011;9680;52.520;13.332;2022-08-20T02:26:47;23.05;;;13.10;;
19095;SDS011;9680;52.520;13.332;2022-08-20T02:29:13;24.80;;;13.48;;
19095;SDS011;9680;52.520;13.332;2022-08-20T02:31:41;27.75;;;13.13;;
19095;SDS011;9680;52.520;13.332;2022-08-20T02:34:09;25.85;;;14.00;;
19095;SDS011;9680;52.520;13.332;2022-08-20T02:36:36;29.02;;;14.00;;
19095;SDS011;9680;52.520;13.332;2022-08-20T02:39:04;25.08;;;14.27;;
19095;SDS011;9680;52.520;13.332;2022-08-20T02:41:33;27.20;;;14.27;;
19095;SDS011;9680;52.520;13.332;2022-08-20T02:43:59;28.30;;;15.00;;
19095;SDS011;9680;52.520;13.332;2022-08-20T02:46:25;30.33;;;14.73;;
19095;SDS011;9680;52.520;13.332;2022-08-20T02:48:52;23.80;;;14.30;;
19095;SDS011;9680;52.520;13.332;2022-08-20T02:51:18;27.90;;;14.38;;
19095;SDS011;9680;52.520;13.332;2022-08-20T02:53:44;29.88;;;14.13;;
19095;SDS011;9680;52.520;13.332;2022-08-20T02:56:10;29.80;;;14.82;;
19095;SDS011;9680;52.520;13.332;2022-08-20T02:58:36;28.10;;;14.93;;
19095;SDS011;9680;52.520;13.332;2022-08-20T03:01:03;29.00;;;14.15;;
19095;SDS011;9680;52.520;13.332;2022-08-20T03:03:31;29.48;;;14.90;;
19095;SDS011;9680;52.520;13.332;2022-08-20T03:05:57;27.67;;;14.65;;
19095;SDS011;9680;52.520;13.332;2022-08-20T03:08:25;30.67;;;15.65;;
19095;SDS011;9680;52.520;13.332;2022-08-20T03:10:53;34.53;;;15.65;;
19095;SDS011;9680;52.520;13.332;2022-08-20T03:13:20;34.05;;;15.82;;
19095;SDS011;9680;52.520;13.332;2022-08-20T03:15:51;29.33;;;14.68;;
19095;SDS011;9680;52.520;13.332;2022-08-20T03:18:18;30.00;;;15.90;;
19095;SDS011;9680;52.520;13.332;2022-08-20T03:20:45;33.20;;;16.63;;
19095;SDS011;9680;52.520;13.332;2022-08-20T03:23:11;39.55;;;17.15;;
19095;SDS011;9680;52.520;13.332;2022-08-20T03:25:38;32.28;;;16.80;;
19095;SDS011;9680;52.520;13.332;2022-08-20T03:28:04;37.13;;;18.00;;
19095;SDS011;9680;52.520;13.332;2022-08-20T03:30:30;36.90;;;17.17;;
19095;SDS011;9680;52.520;13.332;2022-08-20T03:32:56;35.47;;;17.35;;
19095;SDS011;9680;52.520;13.332;2022-08-20T03:35:23;39.85;;;18.23;;
19095;SDS011;9680;52.520;13.332;2022-08-20T03:37:50;38.15;;;18.20;;
19095;SDS011;9680;52.520;13.332;2022-08-20T03:40:21;38.55;;;17.48;;
19095;SDS011;9680;52.520;13.332;2022-08-20T03:42:50;37.95;;;17.20;;
19095;SDS011;9680;52.520;13.332;2022-08-20T03:45:17;36.63;;;17.63;;
19095;SDS011;9680;52.520;13.332;2022-08-20T03:47:44;43.08;;;17.58;;
19095;SDS011;9680;52.520;13.332;2022-08-20T03:50:10;40.97;;;18.63;;
19095;SDS011;9680;52.520;13.332;2022-08-20T03:52:37;35.67;;;17.85;;
19095;SDS011;9680;52.520;13.332;2022-08-20T03:55:04;36.08;;;17.70;;
19095;SDS011;9680;52.520;13.332;2022-08-20T03:57:31;38.67;;;18.30;;
19095;SDS011;9680;52.520;13.332;2022-08-20T03:59:57;41.55;;;19.10;;
19095;SDS011;9680;52.520;13.332;2022-08-20T04:02:22;38.90;;;17.90;;
19095;SDS011;9680;52.520;13.332;2022-08-20T04:04:49;41.15;;;19.02;;
19095;SDS011;9680;52.520;13.332;2022-08-20T04:07:16;36.70;;;17.80;;
19095;SDS011;9680;52.520;13.332;2022-08-20T04:09:53;39.83;;;19.27;;
19095;SDS011;9680;52.520;13.332;2022-08-20T04:12:20;36.95;;;17.38;;
19095;SDS011;9680;52.520;13.332;2022-08-20T04:14:47;36.30;;;17.35;;
19095;SDS011;9680;52.520;13.332;2022-08-20T04:17:13;39.75;;;17.58;;
19095;SDS011;9680;52.520;13.332;2022-08-20T04:19:40;35.15;;;17.10;;
19095;SDS011;9680;52.520;13.332;2022-08-20T04:22:07;37.22;;;17.58;;
19095;SDS011;9680;52.520;13.332;2022-08-20T04:24:33;33.92;;;16.73;;
19095;SDS011;9680;52.520;13.332;2022-08-20T04:27:00;37.15;;;18.58;;
19095;SDS011;9680;52.520;13.332;2022-08-20T04:29:30;38.20;;;18.45;;
19095;SDS011;9680;52.520;13.332;2022-08-20T04:31:57;37.90;;;18.45;;
19095;SDS011;9680;52.520;13.332;2022-08-20T04:34:22;37.53;;;18.13;;
19095;SDS011;9680;52.520;13.332;2022-08-20T04:36:48;34.53;;;17.33;;
19095;SDS011;9680;52.520;13.332;2022-08-20T04:39:14;35.83;;;17.63;;
19095;SDS011;9680;52.520;13.332;2022-08-20T04:41:40;40.53;;;19.00;;
19095;SDS011;9680;52.520;13.332;2022-08-20T04:44:06;36.55;;;17.33;;
19095;SDS011;9680;52.520;13.332;2022-08-20T04:46:32;33.75;;;17.30;;
19095;SDS011;9680;52.520;13.332;2022-08-20T04:48:58;38.83;;;18.02;;
19095;SDS011;9680;52.520;13.332;2022-08-20T04:51:25;36.35;;;17.48;;
19095;SDS011;9680;52.520;13.332;2022-08-20T04:53:51;39.97;;;18.88;;
19095;SDS011;9680;52.520;13.332;2022-08-20T04:56:18;37.55;;;17.63;;
19095;SDS011;9680;52.520;13.332;2022-08-20T04:58:47;37.78;;;17.95;;
19095;SDS011;9680;52.520;13.332;2022-08-20T05:01:15;38.53;;;18.25;;
19095;SDS011;9680;52.520;13.332;2022-08-20T05:03:42;33.20;;;17.08;;
19095;SDS011;9680;52.520;13.332;2022-08-20T05:06:08;38.63;;;19.35;;
19095;SDS011;9680;52.520;13.332;2022-08-20T05:08:36;35.25;;;17.90;;
19095;SDS011;9680;52.520;13.332;2022-08-20T05:11:02;35.38;;;18.13;;
19095;SDS011;9680;52.520;13.332;2022-08-20T05:13:29;37.25;;;18.70;;
19095;SDS011;9680;52.520;13.332;2022-08-20T05:15:54;35.22;;;17.25;;
19095;SDS011;9680;52.520;13.332;2022-08-20T05:18:22;36.47;;;18.38;;
19095;SDS011;9680;52.520;13.332;2022-08-20T05:20:49;37.13;;;18.20;;
19095;SDS011;9680;52.520;13.332;2022-08-20T05:23:16;30.98;;;16.23;;
19095;SDS011;9680;52.520;13.332;2022-08-20T05:25:45;40.72;;;18.13;;
19095;SDS011;9680;52.520;13.332;2022-08-20T05:28:18;36.25;;;18.48;;
19095;SDS011;9680;52.520;13.332;2022-08-20T05:30:48;30.90;;;16.42;;
19095;SDS011;9680;52.520;13.332;2022-08-20T05:33:17;33.13;;;17.48;;
19095;SDS011;9680;52.520;13.332;2022-08-20T05:35:45;34.05;;;17.48;;
19095;SDS011;9680;52.520;13.332;2022-08-20T05:38:14;34.72;;;17.15;;
19095;SDS011;9680;52.520;13.332;2022-08-20T05:40:42;36.80;;;18.58;;
19095;SDS011;9680;52.520;13.332;2022-08-20T05:43:08;33.47;;;17.00;;
19095;SDS011;9680;52.520;13.332;2022-08-20T05:45:34;32.92;;;17.20;;
19095;SDS011;9680;52.520;13.332;2022-08-20T05:48:09;33.95;;;17.63;;
19095;SDS011;9680;52.520;13.332;2022-08-20T05:50:40;35.83;;;16.88;;
19095;SDS011;9680;52.520;13.332;2022-08-20T05:53:07;32.10;;;16.10;;
19095;SDS011;9680;52.520;13.332;2022-08-20T05:55:33;32.03;;;17.10;;
19095;SDS011;9680;52.520;13.332;2022-08-20T05:58:03;36.17;;;18.23;;
19095;SDS011;9680;52.520;13.332;2022-08-20T06:00:30;34.72;;;18.08;;
19095;SDS011;9680;52.520;13.332;2022-08-20T06:02:57;34.08;;;18.13;;
19095;SDS011;9680;52.520;13.332;2022-08-20T06:05:42;34.38;;;17.77;;
19095;SDS011;9680;52.520;13.332;2022-08-20T06:08:09;33.67;;;17.48;;
19095;SDS011;9680;52.520;13.332;2022-08-20T06:10:35;34.65;;;17.80;;
19095;SDS011;9680;52.520;13.332;2022-08-20T06:13:02;38.90;;;18.30;;
19095;SDS011;9680;52.520;13.332;2022-08-20T06:15:31;33.13;;;17.95;;
19095;SDS011;9680;52.520;13.332;2022-08-20T06:18:02;36.40;;;18.05;;
19095;SDS011;9680;52.520;13.332;2022-08-20T06:20:32;34.42;;;17.92;;
19095;SDS011;9680;52.520;13.332;2022-08-20T06:22:59;34.05;;;17.52;;
19095;SDS011;9680;52.520;13.332;2022-08-20T06:25:24;32.45;;;17.48;;
19095;SDS011;9680;52.520;13.332;2022-08-20T06:27:50;34.40;;;18.05;;
19095;SDS011;9680;52.520;13.332;2022-08-20T06:30:15;39.78;;;18.17;;
19095;SDS011;9680;52.520;13.332;2022-08-20T06:32:41;40.17;;;18.25;;
19095;SDS011;9680;52.520;13.332;2022-08-20T06:35:07;35.28;;;17.92;;
19095;SDS011;9680;52.520;13.332;2022-08-20T06:37:35;34.05;;;18.52;;
19095;SDS011;9680;52.520;13.332;2022-08-20T06:40:04;37.20;;;18.23;;
19095;SDS011;9680;52.520;13.332;2022-08-20T06:42:30;34.28;;;18.05;;
19095;SDS011;9680;52.520;13.332;2022-08-20T06:44:56;38.08;;;18.63;;
19095;SDS011;9680;52.520;13.332;2022-08-20T06:47:24;37.97;;;18.20;;
19095;SDS011;9680;52.520;13.332;2022-08-20T06:49:49;36.78;;;18.13;;
19095;SDS011;9680;52.520;13.332;2022-08-20T06:52:16;46.28;;;18.98;;
19095;SDS011;9680;52.520;13.332;2022-08-20T06:54:45;37.95;;;18.90;;
19095;SDS011;9680;52.520;13.332;2022-08-20T06:57:10;38.30;;;19.67;;
19095;SDS011;9680;52.520;13.332;2022-08-20T06:59:36;38.40;;;19.00;;
19095;SDS011;9680;52.520;13.332;2022-08-20T07:02:02;34.97;;;18.65;;
19095;SDS011;9680;52.520;13.332;2022-08-20T07:04:28;35.00;;;18.40;;
19095;SDS011;9680;52.520;13.332;2022-08-20T07:06:54;37.83;;;19.02;;
19095;SDS011;9680;52.520;13.332;2022-08-20T07:09:23;36.05;;;18.27;;
19095;SDS011;9680;52.520;13.332;2022-08-20T07:11:49;37.15;;;18.50;;
19095;SDS011;9680;52.520;13.332;2022-08-20T07:14:15;39.05;;;19.45;;
19095;SDS011;9680;52.520;13.332;2022-08-20T07:16:42;37.42;;;18.35;;
19095;SDS011;9680;52.520;13.332;2022-08-20T07:19:11;35.15;;;18.23;;
19095;SDS011;9680;52.520;13.332;2022-08-20T07:21:37;39.20;;;19.33;;
19095;SDS011;9680;52.520;13.332;2022-08-20T07:24:03;37.70;;;18.98;;
19095;SDS011;9680;52.520;13.332;2022-08-20T07:26:29;38.45;;;18.95;;
19095;SDS011;9680;52.520;13.332;2022-08-20T07:28:55;34.92;;;17.95;;
19095;SDS011;9680;52.520;13.332;2022-08-20T07:31:21;39.67;;;18.70;;
19095;SDS011;9680;52.520;13.332;2022-08-20T07:34:05;35.58;;;18.75;;
19095;SDS011;9680;52.520;13.332;2022-08-20T07:36:31;38.72;;;19.50;;
19095;SDS011;9680;52.520;13.332;2022-08-20T07:38:56;38.05;;;18.35;;
19095;SDS011;9680;52.520;13.332;2022-08-20T07:41:22;33.90;;;17.75;;
19095;SDS011;9680;52.520;13.332;2022-08-20T07:43:48;37.15;;;19.42;;
19095;SDS011;9680;52.520;13.332;2022-08-20T07:46:14;38.78;;;20.23;;
19095;SDS011;9680;52.520;13.332;2022-08-20T07:48:42;37.70;;;19.83;;
19095;SDS011;9680;52.520;13.332;2022-08-20T07:51:14;39.42;;;19.90;;
19095;SDS011;9680;52.520;13.332;2022-08-20T07:53:42;40.90;;;19.58;;
19095;SDS011;9680;52.520;13.332;2022-08-20T07:56:10;40.72;;;19.77;;
19095;SDS011;9680;52.520;13.332;2022-08-20T07:58:40;41.85;;;20.48;;
19095;SDS011;9680;52.520;13.332;2022-08-20T08:01:07;39.88;;;19.77;;
19095;SDS011;9680;52.520;13.332;2022-08-20T08:03:34;42.45;;;20.27;;
19095;SDS011;9680;52.520;13.332;2022-08-20T08:06:02;42.90;;;19.77;;
19095;SDS011;9680;52.520;13.332;2022-08-20T08:08:30;42.72;;;21.13;;
19095;SDS011;9680;52.520;13.332;2022-08-20T08:10:58;47.05;;;21.25;;
19095;SDS011;9680;52.520;13.332;2022-08-20T08:13:30;45.42;;;20.98;;
19095;SDS011;9680;52.520;13.332;2022-08-20T08:16:00;41.13;;;20.70;;
19095;SDS011;9680;52.520;13.332;2022-08-20T08:18:41;48.45;;;21.55;;
19095;SDS011;9680;52.520;13.332;2022-08-20T08:21:09;42.63;;;20.15;;
19095;SDS011;9680;52.520;13.332;2022-08-20T08:23:38;44.80;;;20.42;;
19095;SDS011;9680;52.520;13.332;2022-08-20T08:26:08;47.97;;;22.80;;
19095;SDS011;9680;52.520;13.332;2022-08-20T08:28:33;47.25;;;22.52;;
19095;SDS011;9680;52.520;13.332;2022-08-20T08:31:04;43.90;;;21.25;;
19095;SDS011;9680;52.520;13.332;2022-08-20T08:33:30;45.70;;;22.33;;
19095;SDS011;9680;52.520;13.332;2022-08-20T08:38:33;45.17;;;22.42;;
19095;SDS011;9680;52.520;13.332;2022-08-20T08:41:09;43.88;;;21.17;;
19095;SDS011;9680;52.520;13.332;2022-08-20T08:46:11;45.33;;;21.00;;
19095;SDS011;9680;52.520;13.332;2022-08-20T08:48:42;42.20;;;20.70;;
19095;SDS011;9680;52.520;13.332;2022-08-20T08:51:12;43.60;;;21.73;;
19095;SDS011;9680;52.520;13.332;2022-08-20T08:53:49;42.40;;;20.73;;
19095;SDS011;9680;52.520;13.332;2022-08-20T08:56:22;42.22;;;21.23;;
19095;SDS011;9680;52.520;13.332;2022-08-20T08:58:50;46.03;;;20.50;;
19095;SDS011;9680;52.520;13.332;2022-08-20T09:01:20;43.05;;;20.92;;
19095;SDS011;9680;52.520;13.332;2022-08-20T09:03:48;43.72;;;20.90;;
19095;SDS011;9680;52.520;13.332;2022-08-20T09:06:19;42.35;;;20.92;;
19095;SDS011;9680;52.520;13.332;2022-08-20T09:11:44;40.38;;;20.80;;
19095;SDS011;9680;52.520;13.332;2022-08-20T09:14:12;41.80;;;20.63;;
19095;SDS011;9680;52.520;13.332;2022-08-20T09:16:37;43.80;;;21.08;;
19095;SDS011;9680;52.520;13.332;2022-08-20T09:19:03;44.65;;;20.83;;
19095;SDS011;9680;52.520;13.332;2022-08-20T09:21:28;40.55;;;20.60;;
19095;SDS011;9680;52.520;13.332;2022-08-20T09:23:54;42.33;;;20.38;;
19095;SDS011;9680;52.520;13.332;2022-08-20T09:28:48;41.45;;;20.73;;
19095;SDS011;9680;52.520;13.332;2022-08-20T09:31:14;38.10;;;19.40;;
19095;SDS011;9680;52.520;13.332;2022-08-20T09:33:46;37.95;;;19.50;;
19095;SDS011;9680;52.520;13.332;2022-08-20T09:36:11;33.35;;;17.98;;
19095;SDS011;9680;52.520;13.332;2022-08-20T09:38:37;34.22;;;18.75;;
19095;SDS011;9680;52.520;13.332;2022-08-20T09:41:02;33.35;;;16.98;;
19095;SDS011;9680;52.520;13.332;2022-08-20T09:43:28;30.52;;;17.70;;
19095;SDS011;9680;52.520;13.332;2022-08-20T09:45:53;37.67;;;18.25;;
19095;SDS011;9680;52.520;13.332;2022-08-20T09:48:19;30.75;;;16.42;;
19095;SDS011;9680;52.520;13.332;2022-08-20T09:50:45;30.10;;;16.85;;
19095;SDS011;9680;52.520;13.332;2022-08-20T09:53:13;32.15;;;17.20;;
19095;SDS011;9680;52.520;13.332;2022-08-20T09:55:40;33.22;;;16.95;;
19095;SDS011;9680;52.520;13.332;2022-08-20T10:00:48;29.65;;;16.88;;
19095;SDS011;9680;52.520;13.332;2022-08-20T10:03:14;27.45;;;15.75;;
19095;SDS011;9680;52.520;13.332;2022-08-20T10:05:40;30.27;;;16.10;;
19095;SDS011;9680;52.520;13.332;2022-08-20T10:08:07;25.75;;;15.02;;
19095;SDS011;9680;52.520;13.332;2022-08-20T10:10:34;27.52;;;14.35;;
19095;SDS011;9680;52.520;13.332;2022-08-20T10:13:00;24.80;;;14.32;;
19095;SDS011;9680;52.520;13.332;2022-08-20T10:15:27;26.85;;;13.95;;
19095;SDS011;9680;52.520;13.332;2022-08-20T10:17:53;26.20;;;15.18;;
19095;SDS011;9680;52.520;13.332;2022-08-20T10:20:18;28.60;;;13.55;;
19095;SDS011;9680;52.520;13.332;2022-08-20T10:22:44;23.52;;;13.93;;
19095;SDS011;9680;52.520;13.332;2022-08-20T10:25:10;26.27;;;14.77;;
19095;SDS011;9680;52.520;13.332;2022-08-20T10:27:36;25.65;;;13.35;;
19095;SDS011;9680;52.520;13.332;2022-08-20T10:30:03;25.30;;;13.75;;
19095;SDS011;9680;52.520;13.332;2022-08-20T10:32:30;25.10;;;12.75;;
19095;SDS011;9680;52.520;13.332;2022-08-20T10:34:56;26.00;;;14.00;;
19095;SDS011;9680;52.520;13.332;2022-08-20T10:37:22;23.70;;;13.50;;
19095;SDS011;9680;52.520;13.332;2022-08-20T10:39:49;22.30;;;12.75;;
19095;SDS011;9680;52.520;13.332;2022-08-20T10:42:14;20.60;;;12.65;;
19095;SDS011;9680;52.520;13.332;2022-08-20T10:44:40;23.15;;;12.68;;
19095;SDS011;9680;52.520;13.332;2022-08-20T10:49:47;17.13;;;10.75;;
19095;SDS011;9680;52.520;13.332;2022-08-20T10:52:15;19.25;;;10.75;;
19095;SDS011;9680;52.520;13.332;2022-08-20T10:54:42;16.17;;;9.45;;
19095;SDS011;9680;52.520;13.332;2022-08-20T10:57:19;16.20;;;9.25;;
19095;SDS011;9680;52.520;13.332;2022-08-20T10:59:48;12.52;;;8.18;;
19095;SDS011;9680;52.520;13.332;2022-08-20T11:02:16;15.30;;;8.80;;
19095;SDS011;9680;52.520;13.332;2022-08-20T11:04:43;13.50;;;8.45;;
19095;SDS011;9680;52.520;13.332;2022-08-20T11:07:19;11.75;;;7.88;;
19095;SDS011;9680;52.520;13.332;2022-08-20T11:09:49;12.75;;;7.68;;
19095;SDS011;9680;52.520;13.332;2022-08-20T11:12:17;13.57;;;7.97;;
19095;SDS011;9680;52.520;13.332;2022-08-20T11:14:44;12.88;;;8.25;;
19095;SDS011;9680;52.520;13.332;2022-08-20T11:17:10;13.57;;;9.15;;
19095;SDS011;9680;52.520;13.332;2022-08-20T11:19:40;17.83;;;8.27;;
19095;SDS011;9680;52.520;13.332;2022-08-20T11:22:08;14.05;;;7.30;;
19095;SDS011;9680;52.520;13.332;2022-08-20T11:24:35;13.35;;;7.68;;
19095;SDS011;9680;52.520;13.332;2022-08-20T11:27:00;11.25;;;7.50;;
19095;SDS011;9680;52.520;13.332;2022-08-20T11:29:27;10.55;;;7.00;;
19095;SDS011;9680;52.520;13.332;2022-08-20T11:31:52;12.43;;;7.47;;
19095;SDS011;9680;52.520;13.332;2022-08-20T11:34:18;11.07;;;6.70;;
19095;SDS011;9680;52.520;13.332;2022-08-20T11:36:44;10.48;;;7.18;;
19095;SDS011;9680;52.520;13.332;2022-08-20T11:39:12;10.25;;;6.72;;
19095;SDS011;9680;52.520;13.332;2022-08-20T11:41:38;15.07;;;6.85;;
19095;SDS011;9680;52.520;13.332;2022-08-20T11:44:04;8.50;;;6.28;;
19095;SDS011;9680;52.520;13.332;2022-08-20T11:46:31;9.07;;;5.93;;
19095;SDS011;9680;52.520;13.332;2022-08-20T11:48:57;11.15;;;6.22;;
19095;SDS011;9680;52.520;13.332;2022-08-20T11:51:24;10.23;;;6.03;;
19095;SDS011;9680;52.520;13.332;2022-08-20T11:53:49;10.63;;;6.75;;
19095;SDS011;9680;52.520;13.332;2022-08-20T11:56:15;9.57;;;6.05;;
19095;SDS011;9680;52.520;13.332;2022-08-20T11:58:42;10.52;;;5.80;;
19095;SDS011;9680;52.520;13.332;2022-08-20T12:01:08;14.18;;;6.25;;
19095;SDS011;9680;52.520;13.332;2022-08-20T12:03:33;9.82;;;5.75;;
19095;SDS011;9680;52.520;13.332;2022-08-20T12:05:59;7.47;;;5.68;;
19095;SDS011;9680;52.520;13.332;2022-08-20T12:08:24;9.15;;;5.25;;
19095;SDS011;9680;52.520;13.332;2022-08-20T12:10:50;8.43;;;5.45;;
19095;SDS011;9680;52.520;13.332;2022-08-20T12:13:15;8.85;;;5.53;;
19095;SDS011;9680;52.520;13.332;2022-08-20T12:15:41;8.38;;;5.43;;
19095;SDS011;9680;52.520;13.332;2022-08-20T12:18:08;7.40;;;4.82;;
19095;SDS011;9680;52.520;13.332;2022-08-20T12:20:35;7.43;;;4.35;;
19095;SDS011;9680;52.520;13.332;2022-08-20T12:23:02;8.18;;;4.50;;
19095;SDS011;9680;52.520;13.332;2022-08-20T12:25:28;9.27;;;4.72;;
19095;SDS011;9680;52.520;13.332;2022-08-20T12:27:53;11.10;;;4.78;;
19095;SDS011;9680;52.520;13.332;2022-08-20T12:30:20;8.98;;;5.05;;
19095;SDS011;9680;52.520;13.332;2022-08-20T12:32:47;6.63;;;4.53;;
19095;SDS011;9680;52.520;13.332;2022-08-20T12:35:14;6.30;;;4.47;;
19095;SDS011;9680;52.520;13.332;2022-08-20T12:37:41;7.32;;;4.80;;
19095;SDS011;9680;52.520;13.332;2022-08-20T12:40:10;7.68;;;4.95;;
19095;SDS011;9680;52.520;13.332;2022-08-20T12:42:39;6.20;;;4.55;;
19095;SDS011;9680;52.520;13.332;2022-08-20T12:45:05;7.60;;;4.93;;
19095;SDS011;9680;52.520;13.332;2022-08-20T12:47:32;5.82;;;4.30;;
19095;SDS011;9680;52.520;13.332;2022-08-20T12:50:01;6.15;;;4.47;;
19095;SDS011;9680;52.520;13.332;2022-08-20T12:52:31;7.75;;;4.88;;
19095;SDS011;9680;52.520;13.332;2022-08-20T12:54:57;10.73;;;5.65;;
19095;SDS011;9680;52.520;13.332;2022-08-20T12:59:49;9.00;;;5.20;;
19095;SDS011;9680;52.520;13.332;2022-08-20T13:02:14;7.40;;;4.60;;
19095;SDS011;9680;52.520;13.332;2022-08-20T13:04:42;7.47;;;4.85;;
19095;SDS011;9680;52.520;13.332;2022-08-20T13:07:09;10.32;;;5.72;;
19095;SDS011;9680;52.520;13.332;2022-08-20T13:09:36;7.65;;;5.32;;
19095;SDS011;9680;52.520;13.332;2022-08-20T13:12:01;8.00;;;5.63;;
19095;SDS011;9680;52.520;13.332;2022-08-20T13:14:27;7.63;;;5.70;;
19095;SDS011;9680;52.520;13.332;2022-08-20T13:16:54;9.05;;;6.20;;
19095;SDS011;9680;52.520;13.332;2022-08-20T13:19:23;9.40;;;6.03;;
19095;SDS011;9680;52.520;13.332;2022-08-20T13:21:49;9.85;;;5.90;;
19095;SDS011;9680;52.520;13.332;2022-08-20T13:24:14;9.02;;;6.35;;
19095;SDS011;9680;52.520;13.332;2022-08-20T13:26:40;18.17;;;6.40;;
19095;SDS011;9680;52.520;13.332;2022-08-20T13:29:06;11.20;;;6.32;;
19095;SDS011;9680;52.520;13.332;2022-08-20T13:31:31;9.68;;;6.35;;
19095;SDS011;9680;52.520;13.332;2022-08-20T13:33:57;11.80;;;6.47;;
19095;SDS011;9680;52.520;13.332;2022-08-20T13:36:22;10.75;;;6.57;;
19095;SDS011;9680;52.520;13.332;2022-08-20T13:38:48;11.65;;;6.70;;
19095;SDS011;9680;52.520;13.332;2022-08-20T13:41:13;11.80;;;6.55;;
19095;SDS011;9680;52.520;13.332;2022-08-20T13:43:39;11.68;;;6.65;;
19095;SDS011;9680;52.520;13.332;2022-08-20T13:46:04;10.32;;;6.65;;
19095;SDS011;9680;52.520;13.332;2022-08-20T13:48:31;10.95;;;7.10;;
19095;SDS011;9680;52.520;13.332;2022-08-20T13:50:57;11.63;;;7.15;;
19095;SDS011;9680;52.520;13.332;2022-08-20T13:53:23;13.82;;;7.05;;
19095;SDS011;9680;52.520;13.332;2022-08-20T13:55:49;11.57;;;6.95;;
19095;SDS011;9680;52.520;13.332;2022-08-20T13:58:14;12.10;;;6.65;;
19095;SDS011;9680;52.520;13.332;2022-08-20T14:00:42;11.75;;;7.20;;
19095;SDS011;9680;52.520;13.332;2022-08-20T14:03:08;12.20;;;7.05;;
19095;SDS011;9680;52.520;13.332;2022-08-20T14:05:34;13.77;;;7.32;;
19095;SDS011;9680;52.520;13.332;2022-08-20T14:08:04;15.52;;;7.60;;
19095;SDS011;9680;52.520;13.332;2022-08-20T14:10:44;14.20;;;7.75;;
19095;SDS011;9680;52.520;13.332;2022-08-20T14:13:13;15.27;;;8.10;;
19095;SDS011;9680;52.520;13.332;2022-08-20T14:15:38;13.18;;;7.72;;
19095;SDS011;9680;52.520;13.332;2022-08-20T14:18:05;19.10;;;8.48;;
19095;SDS011;9680;52.520;13.332;2022-08-20T14:20:31;11.55;;;7.28;;
19095;SDS011;9680;52.520;13.332;2022-08-20T14:22:58;14.30;;;8.43;;
19095;SDS011;9680;52.520;13.332;2022-08-20T14:25:24;13.85;;;8.02;;
19095;SDS011;9680;52.520;13.332;2022-08-20T14:27:51;14.57;;;8.02;;
19095;SDS011;9680;52.520;13.332;2022-08-20T14:30:19;15.40;;;7.82;;
19095;SDS011;9680;52.520;13.332;2022-08-20T14:32:49;16.65;;;8.35;;
19095;SDS011;9680;52.520;13.332;2022-08-20T14:35:15;17.77;;;8.60;;
19095;SDS011;9680;52.520;13.332;2022-08-20T14:37:41;13.07;;;8.65;;
19095;SDS011;9680;52.520;13.332;2022-08-20T14:40:11;15.27;;;8.35;;
19095;SDS011;9680;52.520;13.332;2022-08-20T14:42:39;14.57;;;8.70;;
19095;SDS011;9680;52.520;13.332;2022-08-20T14:45:06;13.88;;;8.50;;
19095;SDS011;9680;52.520;13.332;2022-08-20T14:47:38;16.20;;;8.57;;
19095;SDS011;9680;52.520;13.332;2022-08-20T14:50:10;13.63;;;8.20;;